Time;durP1;ratioP1;P1;durP2;ratioP2;P2;SDS_P1;SDS_P2;PMS_P1;PMS_P2;Temp;Humidity;BMP_temperature;BMP_pressure;BME280_temperature;BME280_humidity;BME280_pressure;Samples;Min_cycle;Max_cycle;Signal;HPM_P1;HPM_P2
2023/04/17 00:05:15;;;;;;;50.90;46.20;;;;;;;8.31;71.76;100820.27;111740;1253;22973;-87
2023/04/17 00:08:18;;;;;;;55.30;49.90;;;;;;;8.14;72.13;100816.81;111256;1260;21989;-85
2023/04/17 00:16:35;;;;;;;58.10;52.80;;;;;;;7.88;72.82;100819.05;110285;1267;23031;-85
2023/04/17 00:23:47;;;;;;;60.60;54.90;;;;;;;7.73;73.07;100824.71;109144;1279;22005;-83
2023/04/17 00:27:25;;;;;;;53.90;49.00;;;;;;;7.64;73.14;100824.70;109274;1276;22099;-85
2023/04/17 00:31:13;;;;;;;;;;;;;;;;;;;;;
2023/04/17 00:34:39;;;;;;;50.10;45.20;;;;;;;7.53;73.64;100822.64;109302;1277;21989;-84
2023/04/17 00:37:51;;;;;;;51.30;46.40;;;;;;;7.51;73.78;100821.83;109919;1266;21983;-81
2023/04/17 00:40:54;;;;;;;;;;;;;;;;;;;;;
2023/04/17 00:44:10;;;;;;;55.70;50.50;;;;;;;7.48;73.96;100827.75;111011;1262;21949;-83
2023/04/17 00:47:02;;;;;;;53.20;48.10;;;;;;;7.48;74.01;100827.95;110948;1262;21998;-83
2023/04/17 00:50:02;;;;;;;48.00;43.60;;;;;;;7.47;73.95;100828.82;110706;1262;22878;-85
2023/04/17 00:52:52;;;;;;;42.70;38.80;;;;;;;7.48;73.87;100829.14;111099;1256;24438;-82
2023/04/17 00:55:58;;;;;;;38.80;35.20;;;;;;;7.48;73.93;100834.17;111242;1256;22899;-81
2023/04/17 00:59:18;;;;;;;41.00;37.10;;;;;;;7.48;74.17;100834.17;111535;1252;23694;-84
2023/04/17 01:02:52;;;;;;;42.30;38.20;;;;;;;7.46;74.09;100840.09;111774;1251;21962;-84
2023/04/17 01:05:51;;;;;;;52.70;47.60;;;;;;;7.47;74.08;100847.52;111958;1245;22123;-81
2023/04/17 01:09:02;;;;;;;53.00;48.20;;;;;;;7.47;74.10;100846.48;112090;1247;22970;-84
2023/04/17 01:12:57;;;;;;;;;;;;;;;;;;;;;
2023/04/17 01:16:40;;;;;;;;;;;;;;;;;;;;;
2023/04/17 01:19:31;;;;;;;51.90;47.20;;;;;;;7.40;74.07;100854.73;112262;1248;24287;-83
2023/04/17 01:22:34;;;;;;;49.00;44.50;;;;;;;7.42;74.01;100851.93;111520;1254;21975;-83
2023/04/17 01:25:37;;;;;;;55.80;50.50;;;;;;;7.44;73.86;100850.86;111275;1254;22743;-83
2023/04/17 01:28:58;;;;;;;50.80;46.10;;;;;;;7.44;73.88;100849.13;111594;1255;23032;-85
2023/04/17 01:32:11;;;;;;;64.60;58.70;;;;;;;7.43;73.87;100852.09;111483;1255;23718;-83
2023/04/17 01:35:07;;;;;;;59.30;53.80;;;;;;;7.43;73.84;100851.05;111503;1255;21979;-84
2023/04/17 01:38:08;;;;;;;64.60;58.60;;;;;;;7.46;73.87;100856.36;111677;1250;21947;-83
2023/04/17 01:41:42;;;;;;;59.40;54.00;;;;;;;7.45;73.85;100852.05;112457;1244;23723;-83
2023/04/17 01:44:49;;;;;;;58.10;52.70;;;;;;;7.45;73.82;100851.69;112298;1244;23681;-83
2023/04/17 01:47:52;;;;;;;60.50;54.90;;;;;;;7.46;73.83;100854.27;112426;1244;22784;-82
2023/04/17 01:51:08;;;;;;;57.60;52.00;;;;;;;7.45;73.79;100852.05;112419;1244;21963;-83
2023/04/17 01:54:26;;;;;;;;;;;;;;;;;;;;;
2023/04/17 02:01:02;;;;;;;52.50;47.50;;;;;;;7.39;73.65;100853.20;112761;1242;21958;-83
2023/04/17 02:07:17;;;;;;;;;;;;;;;;;;;;;
2023/04/17 02:10:24;;;;;;;57.10;51.80;;;;;;;7.32;73.52;100858.33;112390;1246;22970;-84
2023/04/17 02:13:31;;;;;;;57.20;51.80;;;;;;;7.30;73.45;100858.38;112052;1246;22842;-84
2023/04/17 02:16:31;;;;;;;58.90;53.40;;;;;;;7.27;73.51;100860.31;112831;1241;21966;-85
2023/04/17 02:19:33;;;;;;;60.40;54.90;;;;;;;7.26;73.47;100860.50;112994;1240;21938;-84
2023/04/17 02:25:56;;;;;;;60.10;54.70;;;;;;;7.20;73.48;100868.21;113426;1236;21973;-83
2023/04/17 02:28:44;;;;;;;52.00;47.30;;;;;;;7.18;73.35;100869.27;113194;1236;21960;-85
2023/04/17 02:31:37;;;;;;;49.10;44.50;;;;;;;7.18;73.38;100866.52;113528;1230;24303;-83
2023/04/17 02:34:32;;;;;;;44.60;40.50;;;;;;;7.16;73.36;100867.41;113836;1229;23588;-83
2023/04/17 02:38:08;;;;;;;47.50;42.90;;;;;;;7.11;73.41;100871.30;114098;1229;21965;-84
2023/04/17 02:41:28;;;;;;;46.50;42.00;;;;;;;7.06;73.50;100867.92;113369;1238;23109;-82
2023/04/17 02:44:34;;;;;;;46.90;42.30;;;;;;;7.02;73.71;100869.88;113056;1238;23674;-82
2023/04/17 02:47:18;;;;;;;43.60;39.30;;;;;;;7.02;73.76;100875.58;112769;1238;23097;-81
2023/04/17 02:50:05;;;;;;;47.50;43.20;;;;;;;7.02;73.62;100877.48;112662;1239;23810;-83
2023/04/17 02:52:48;;;;;;;46.10;41.70;;;;;;;7.03;73.68;100879.55;112858;1239;21955;-83
2023/04/17 02:55:38;;;;;;;44.50;40.10;;;;;;;7.03;73.71;100879.55;113004;1238;23732;-83
2023/04/17 02:58:29;;;;;;;45.50;40.10;;;;;;;7.01;73.64;100880.27;112734;1233;22640;-84
2023/04/17 03:01:15;;;;;;;44.50;40.10;;;;;;;6.97;73.55;100880.84;113719;1233;22915;-84
2023/04/17 03:04:03;;;;;;;48.90;44.00;;;;;;;6.94;73.62;100880.90;113121;1239;21997;-82
2023/04/17 03:06:50;;;;;;;48.90;44.00;;;;;;;6.92;73.69;100876.07;113237;1236;21957;-80
2023/04/17 03:09:58;;;;;;;49.50;44.20;;;;;;;6.89;73.87;100876.45;113372;1235;21954;-82
2023/04/17 03:12:45;;;;;;;46.90;41.90;;;;;;;6.87;73.74;100875.98;113103;1242;21945;-81
2023/04/17 03:15:36;;;;;;;46.40;41.40;;;;;;;6.84;73.56;100877.91;112290;1247;21986;-82
2023/04/17 03:18:31;;;;;;;45.70;41.30;;;;;;;6.80;73.58;100881.43;111974;1247;22978;-82
2023/04/17 03:21:22;;;;;;;45.00;40.20;;;;;;;6.76;73.51;100883.90;112093;1244;21930;-82
2023/04/17 03:24:17;;;;;;;41.00;37.00;;;;;;;6.72;73.54;100883.62;112409;1244;22710;-81
2023/04/17 03:27:43;;;;;;;39.70;35.90;;;;;;;6.67;73.66;100884.02;112669;1244;23709;-82
2023/04/17 03:30:34;;;;;;;40.20;36.20;;;;;;;6.64;73.75;100887.86;112261;1244;21954;-84
2023/04/17 03:33:37;;;;;;;36.80;33.20;;;;;;;6.63;73.64;100889.45;113006;1237;22001;-83
2023/04/17 03:36:40;;;;;;;;;;;;;;;;;;;;;
2023/04/17 03:39:40;;;;;;;38.40;34.70;;;;;;;6.54;73.59;100890.94;113428;1237;21982;-83
2023/04/17 03:42:36;;;;;;;48.20;43.60;;;;;;;6.50;73.80;100890.98;112532;1244;22007;-84
2023/04/17 03:45:30;;;;;;;;;;;;;;;6.47;73.75;100890.67;112517;1244;21948;-82
2023/04/17 03:48:32;;;;;;;50.70;45.80;;;;;;;6.36;74.08;100894.95;112291;1243;22428;-83
2023/04/17 03:51:33;;;;;;;57.90;52.00;;;;;;;6.34;74.04;100901.55;112681;1243;22413;-82
2023/04/17 03:54:26;;;;;;;45.00;40.20;;;;;;;6.33;73.97;100904.15;112719;1243;21988;-84
2023/04/17 03:57:20;;;;;;;47.20;37.40;;;;;;;6.28;73.89;100910.09;112655;1243;23201;-83
2023/04/17 04:00:43;;;;;;;42.90;38.40;;;;;;;6.20;73.89;100909.30;112733;1243;24303;-81
2023/04/17 04:04:09;;;;;;;46.30;39.60;;;;;;;6.09;74.07;100912.19;112423;1245;22045;-80
2023/04/17 04:07:25;;;;;;;44.00;38.90;;;;;;;6.04;74.24;100914.84;112676;1240;21953;-81
2023/04/17 04:10:38;;;;;;;43.40;38.70;;;;;;;6.04;74.58;100915.88;112419;1247;21982;-82
2023/04/17 04:13:27;;;;;;;43.00;38.30;;;;;;;6.03;74.64;100917.09;112018;1247;22718;-82
2023/04/17 04:16:12;;;;;;;49.90;38.00;;;;;;;6.06;74.81;100915.00;111793;1251;21980;-82
2023/04/17 04:19:08;;;;;;;45.80;40.60;;;;;;;6.08;75.01;100913.94;111754;1247;24190;-82
2023/04/17 04:22:04;;;;;;;;;;;;;;;;;;;;;
2023/04/17 04:25:37;;;;;;;49.20;36.20;;;;;;;6.14;75.26;100920.79;111656;1254;21967;-82
2023/04/17 04:28:52;;;;;;;47.00;35.60;;;;;;;6.19;75.56;100923.49;112052;1241;21959;-83
2023/04/17 04:31:54;;;;;;;50.90;37.10;;;;;;;6.24;75.46;100928.28;112054;1250;22204;-82
2023/04/17 04:35:10;;;;;;;;;;;;;;;;;;;;;
2023/04/17 04:39:00;;;;;;;49.20;35.10;;;;;;;6.15;75.59;100933.89;112096;1251;22039;-80
2023/04/17 04:41:54;;;;;;;50.60;36.60;;;;;;;6.14;75.55;100938.07;112287;1248;23348;-80
2023/04/17 04:45:21;;;;;;;47.00;36.70;;;;;;;6.10;75.61;100941.39;112271;1248;23049;-82
2023/04/17 04:48:43;;;;;;;53.60;42.60;;;;;;;6.14;75.92;100939.61;112860;1242;21967;-82
2023/04/17 04:52:05;;;;;;;49.30;43.20;;;;;;;6.24;76.23;100938.99;113072;1237;21840;-82
2023/04/17 04:55:44;;;;;;;53.70;44.00;;;;;;;6.38;76.11;100938.50;113190;1237;22953;-81
2023/04/17 04:58:59;;;;;;;58.30;47.90;;;;;;;6.40;76.26;100941.41;112575;1244;21964;-82
2023/04/17 05:02:09;;;;;;;59.20;50.80;;;;;;;6.48;76.26;100942.38;112041;1248;22062;-84
2023/04/17 05:05:11;;;;;;;53.90;47.90;;;;;;;6.52;76.14;100943.70;112184;1248;21968;-82
2023/04/17 05:08:35;;;;;;;50.60;45.30;;;;;;;6.53;76.39;100951.11;112140;1248;21971;-83
2023/04/17 05:11:32;;;;;;;51.10;45.70;;;;;;;6.61;76.42;100957.08;112122;1248;23632;-83
2023/04/17 05:14:56;;;;;;;51.50;46.10;;;;;;;6.68;76.20;100958.55;111610;1247;23626;-83
2023/04/17 05:17:49;;;;;;;47.40;42.70;;;;;;;6.69;76.31;100957.16;112384;1246;21980;-80
2023/04/17 05:21:31;;;;;;;52.20;47.00;;;;;;;6.71;76.24;100958.52;112577;1244;22416;-80
2023/04/17 05:23:56;;;;;;;51.00;45.90;;;;;;;6.74;76.39;100960.39;112593;1244;21970;-79
2023/04/17 05:27:20;;;;;;;46.70;41.90;;;;;;;6.83;76.71;100959.06;112494;1244;22302;-79
2023/04/17 05:30:17;;;;;;;45.40;40.90;;;;;;;6.95;76.86;100956.33;112474;1244;22570;-80
2023/04/17 05:32:57;;;;;;;40.50;36.40;;;;;;;7.11;76.97;100959.39;113212;1237;21941;-79
2023/04/17 05:36:10;;;;;;;43.20;38.90;;;;;;;7.22;76.73;100960.10;114124;1229;23565;-79
2023/04/17 05:39:15;;;;;;;48.20;43.70;;;;;;;7.34;76.81;100956.98;114058;1229;22425;-80
2023/04/17 05:42:40;;;;;;;48.60;43.90;;;;;;;7.50;77.10;100961.08;113748;1229;22060;-79
2023/04/17 05:45:40;;;;;;;47.20;42.70;;;;;;;7.69;77.01;100966.85;113187;1237;22050;-79
2023/04/17 05:48:30;;;;;;;46.40;41.90;;;;;;;7.81;76.42;100967.69;112221;1246;21974;-81
2023/04/17 05:51:37;;;;;;;44.70;40.50;;;;;;;7.98;76.66;100965.67;112175;1246;22974;-80
2023/04/17 05:54:10;;;;;;;45.80;40.80;;;;;;;8.23;76.89;100964.17;112337;1245;22419;-78
2023/04/17 05:56:48;;;;;;;41.60;37.70;;;;;;;8.50;76.63;100971.52;112384;1245;24964;-79
2023/04/17 05:59:25;;;;;;;41.50;37.70;;;;;;;8.65;75.85;100972.79;112587;1245;23606;-79
2023/04/17 06:02:00;;;;;;;41.90;37.60;;;;;;;8.73;75.14;100971.93;111882;1252;22403;-80
2023/04/17 06:04:42;;;;;;;40.20;36.30;;;;;;;8.77;74.63;100973.58;112189;1247;21968;-78
2023/04/17 06:07:18;;;;;;;33.30;30.00;;;;;;;8.86;74.43;100973.39;112678;1242;21997;-79
2023/04/17 06:09:54;;;;;;;33.30;30.20;;;;;;;8.94;74.03;100971.33;112329;1246;21969;-80
2023/04/17 06:12:33;;;;;;;29.70;27.00;;;;;;;8.97;73.49;100974.90;112339;1246;22730;-80
2023/04/17 06:15:13;;;;;;;34.20;30.80;;;;;;;9.02;73.29;100975.50;112316;1246;23699;-79
2023/04/17 06:17:48;;;;;;;31.50;28.40;;;;;;;9.11;73.27;100974.61;111923;1249;21978;-79
2023/04/17 06:20:31;;;;;;;26.80;24.30;;;;;;;9.28;73.50;100976.13;112150;1245;21933;-80
2023/04/17 06:23:06;;;;;;;25.00;22.70;;;;;;;9.43;72.88;100975.13;112592;1242;23012;-79
2023/04/17 06:25:51;;;;;;;24.50;22.30;;;;;;;9.52;72.40;100973.50;112715;1241;22484;-81
2023/04/17 06:28:28;;;;;;;24.50;20.40;;;;;;;9.62;71.55;100977.45;113463;1236;22708;-80
2023/04/17 06:31:11;;;;;;;21.40;19.20;;;;;;;9.68;71.36;100984.77;113458;1236;22703;-79
2023/04/17 06:38:08;;;;;;;20.60;18.70;;;;;;;9.93;71.13;100986.61;113458;1240;21968;-80
2023/04/17 06:41:02;;;;;;;20.20;18.50;;;;;;;10.02;70.29;100985.85;113182;1240;23068;-83
2023/04/17 06:43:53;;;;;;;17.80;16.30;;;;;;;10.00;69.56;100989.58;113639;1235;21979;-81
2023/04/17 06:46:53;;;;;;;18.90;17.30;;;;;;;10.01;69.47;100989.55;113634;1236;23659;-83
2023/04/17 06:50:19;;;;;;;20.40;18.50;;;;;;;10.05;69.22;100988.90;113547;1236;21975;-84
2023/04/17 06:53:14;;;;;;;;;;;;;;;;;;;;;
2023/04/17 06:56:16;;;;;;;17.70;16.00;;;;;;;10.16;68.91;100988.65;113591;1236;22954;-81
2023/04/17 06:59:17;;;;;;;18.80;17.10;;;;;;;10.27;68.72;100991.66;112777;1242;21987;-83
2023/04/17 07:02:51;;;;;;;;;;;;;;;;;;;;;
2023/04/17 07:06:32;;;;;;;17.00;15.50;;;;;;;10.47;67.95;100999.67;112651;1242;23143;-83
2023/04/17 07:09:24;;;;;;;17.40;15.80;;;;;;;10.47;67.48;101010.64;112237;1246;21976;-84
2023/04/17 07:12:37;;;;;;;18.20;16.50;;;;;;;10.45;67.00;101006.33;112210;1246;23575;-83
2023/04/17 07:15:45;;;;;;;16.30;14.90;;;;;;;10.45;67.15;101002.34;112429;1243;21956;-83
2023/04/17 07:18:43;;;;;;;16.40;15.00;;;;;;;10.52;67.01;101006.15;112690;1242;22253;-84
2023/04/17 07:22:00;;;;;;;15.40;14.00;;;;;;;10.57;66.77;101008.63;112811;1242;23706;-83
2023/04/17 07:25:33;;;;;;;15.20;13.70;;;;;;;10.55;66.55;101009.39;112835;1242;21954;-82
2023/04/17 07:28:38;;;;;;;16.10;14.70;;;;;;;10.64;66.99;101010.36;112611;1242;21935;-85
2023/04/17 07:31:50;;;;;;;18.40;16.60;;;;;;;11.11;68.18;101010.73;112634;1242;21946;-82
2023/04/17 07:34:57;;;;;;;15.70;14.30;;;;;;;11.75;67.62;101009.14;112077;1250;21995;-81
2023/04/17 07:38:00;;;;;;;17.50;15.90;;;;;;;12.27;66.72;101018.10;112158;1247;21955;-81
2023/04/17 07:40:42;;;;;;;15.60;14.30;;;;;;;12.67;65.27;101018.97;113003;1241;23700;-79
2023/04/17 07:43:15;;;;;;;17.00;15.50;;;;;;;12.79;63.46;101022.88;112889;1240;23571;-80
2023/04/17 07:46:07;;;;;;;15.60;14.20;;;;;;;12.67;61.91;101024.39;112905;1241;23782;-79
2023/04/17 07:48:39;;;;;;;14.70;13.40;;;;;;;12.53;62.03;101023.14;112948;1241;21949;-79
2023/04/17 07:51:21;;;;;;;15.50;14.00;;;;;;;12.52;62.17;101025.28;113012;1241;22457;-81
2023/04/17 07:54:30;;;;;;;14.90;13.30;;;;;;;12.49;62.19;101028.88;113282;1241;22523;-79
2023/04/17 07:57:07;;;;;;;14.50;13.30;;;;;;;12.46;61.95;101030.38;112405;1244;21969;-79
2023/04/17 07:59:37;;;;;;;14.00;12.70;;;;;;;12.31;61.51;101033.33;112551;1241;21972;-80
2023/04/17 08:02:14;;;;;;;13.10;11.80;;;;;;;12.19;61.89;101029.52;112425;1241;22640;-80
2023/04/17 08:04:51;;;;;;;14.80;13.50;;;;;;;12.14;61.99;101029.72;112695;1241;22824;-80
2023/04/17 08:07:40;;;;;;;12.90;11.90;;;;;;;12.20;63.11;101035.08;112692;1241;22021;-78
2023/04/17 08:10:12;;;;;;;14.40;13.10;;;;;;;12.51;63.53;101037.17;112701;1235;22308;-81
2023/04/17 08:12:51;;;;;;;15.40;14.00;;;;;;;12.72;62.83;101036.62;113655;1235;23750;-80
2023/04/17 08:16:09;;;;;;;16.00;14.50;;;;;;;12.92;62.25;101041.83;113153;1237;21947;-79
2023/04/17 08:19:39;;;;;;;13.80;12.60;;;;;;;12.90;61.51;101039.79;112770;1241;21955;-80
2023/04/17 08:22:29;;;;;;;15.20;13.90;;;;;;;12.77;60.99;101047.08;112680;1242;23008;-79
2023/04/17 08:25:08;;;;;;;14.80;13.40;;;;;;;12.65;60.71;101051.52;112451;1241;23882;-80
2023/04/17 08:28:10;;;;;;;15.60;14.10;;;;;;;12.50;60.68;101053.27;112230;1246;22098;-81
2023/04/17 08:30:56;;;;;;;15.90;14.40;;;;;;;12.38;61.01;101056.12;112090;1246;23031;-82
2023/04/17 08:33:41;;;;;;;16.10;14.90;;;;;;;12.34;61.52;101058.71;112584;1239;23783;-80
2023/04/17 08:36:21;;;;;;;16.50;15.00;;;;;;;12.42;61.89;101061.91;112872;1239;21947;-80
2023/04/17 08:39:15;;;;;;;16.70;15.40;;;;;;;12.48;61.89;101062.05;113068;1239;21967;-81
2023/04/17 08:42:15;;;;;;;18.00;16.40;;;;;;;12.80;63.20;101060.77;112929;1239;23145;-81
2023/04/17 08:45:25;;;;;;;16.20;14.70;;;;;;;13.44;63.13;101063.67;112861;1234;21969;-81
2023/04/17 08:48:14;;;;;;;16.50;15.10;;;;;;;13.80;61.44;101068.94;112416;1241;24779;-80
2023/04/17 08:50:53;;;;;;;16.00;14.60;;;;;;;13.93;59.89;101069.64;112917;1237;22431;-78
2023/04/17 08:53:39;;;;;;;15.20;13.90;;;;;;;14.08;59.54;101074.65;113610;1237;21938;-80
2023/04/17 08:56:21;;;;;;;15.10;13.70;;;;;;;14.20;59.23;101071.86;113548;1237;21950;-80
2023/04/17 08:59:06;;;;;;;15.40;13.90;;;;;;;14.55;59.61;101067.07;113346;1237;21928;-79
2023/04/17 09:02:17;;;;;;;15.20;13.90;;;;;;;14.84;58.14;101067.06;113491;1237;21935;-80
2023/04/17 09:05:33;;;;;;;14.00;12.80;;;;;;;14.74;56.35;101073.27;113485;1237;21947;-80
2023/04/17 09:08:28;;;;;;;14.70;13.20;;;;;;;14.69;56.97;101072.64;113722;1229;21936;-77
2023/04/17 09:11:26;;;;;;;15.50;14.30;;;;;;;14.64;55.93;101072.48;113687;1229;21952;-79
2023/04/17 09:14:00;;;;;;;15.60;14.20;;;;;;;14.58;56.67;101076.08;113929;1230;23764;-79
2023/04/17 09:16:53;;;;;;;13.60;12.30;;;;;;;14.74;56.60;101079.07;113902;1229;21970;-79
2023/04/17 09:19:30;;;;;;;13.80;12.60;;;;;;;14.73;55.75;101079.95;113620;1234;22005;-80
2023/04/17 09:22:31;;;;;;;13.90;12.60;;;;;;;14.67;55.52;101076.23;113204;1239;22697;-84
2023/04/17 09:25:27;;;;;;;14.30;12.70;;;;;;;14.59;55.62;101076.55;112982;1239;21958;-82
2023/04/17 09:28:19;;;;;;;14.50;13.10;;;;;;;14.49;55.15;101073.80;113032;1239;22473;-83
2023/04/17 09:30:49;;;;;;;13.40;12.00;;;;;;;14.35;55.24;101071.23;113286;1239;24992;-82
2023/04/17 09:34:03;;;;;;;18.30;16.40;;;;;;;14.27;55.24;101067.91;113366;1239;23022;-81
2023/04/17 09:36:42;;;;;;;16.30;12.80;;;;;;;14.11;55.77;101065.21;113218;1237;21965;-83
2023/04/17 09:40:08;;;;;;;12.50;11.40;;;;;;;14.03;55.76;101063.46;113976;1229;21959;-82
2023/04/17 09:43:20;;;;;;;13.00;11.90;;;;;;;14.03;56.21;101059.09;114077;1238;21905;-82
2023/04/17 09:46:29;;;;;;;19.10;17.60;;;;;;;14.15;56.85;101060.34;114094;1238;21958;-85
2023/04/17 09:49:41;;;;;;;11.60;10.60;;;;;;;14.43;56.70;101063.73;114063;1238;21915;-82
2023/04/17 09:52:38;;;;;;;13.10;11.70;;;;;;;14.67;56.35;101059.23;113361;1237;23758;-84
2023/04/17 09:55:20;;;;;;;12.30;11.20;;;;;;;14.93;56.22;101057.90;113263;1238;21956;-81
2023/04/17 09:58:11;;;;;;;12.70;11.60;;;;;;;15.20;55.63;101058.63;113291;1238;21976;-79
2023/04/17 10:01:02;;;;;;;12.60;11.50;;;;;;;15.55;55.49;101056.79;113563;1231;22825;-80
2023/04/17 10:03:48;;;;;;;13.30;12.00;;;;;;;15.95;55.10;101047.36;113698;1231;21955;-79
2023/04/17 10:06:58;;;;;;;13.30;12.10;;;;;;;16.43;53.84;101045.19;113897;1235;23607;-82
2023/04/17 10:09:56;;;;;;;12.10;11.00;;;;;;;16.59;52.03;101044.69;113504;1235;21930;-82
2023/04/17 10:12:39;;;;;;;10.10;9.10;;;;;;;16.66;51.88;101046.94;113685;1235;23679;-80
2023/04/17 10:15:48;;;;;;;11.50;10.40;;;;;;;16.73;51.12;101051.86;113048;1241;22082;-79
2023/04/17 10:18:40;;;;;;;11.00;10.00;;;;;;;16.73;50.48;101054.67;112816;1241;22972;-79
2023/04/17 10:21:33;;;;;;;10.10;9.20;;;;;;;16.80;50.54;101049.92;112682;1241;23086;-81
2023/04/17 10:27:57;;;;;;;10.40;9.40;;;;;;;16.99;50.47;101048.23;112622;1243;21945;-79
2023/04/17 10:34:48;;;;;;;9.10;8.20;;;;;;;17.15;48.86;101047.52;113224;1238;22035;-80
2023/04/17 10:37:50;;;;;;;10.00;9.10;;;;;;;17.03;48.47;101050.27;112983;1238;22832;-79
2023/04/17 10:41:09;;;;;;;;;;;;;;;;;;;;;
2023/04/17 10:44:05;;;;;;;11.00;9.70;;;;;;;16.73;49.10;101037.95;113081;1238;22300;-81
2023/04/17 10:47:14;;;;;;;11.90;10.80;;;;;;;16.70;49.00;101035.66;113123;1238;21963;-79
2023/04/17 10:50:41;;;;;;;12.20;9.90;;;;;;;16.63;49.21;101029.73;113312;1238;21961;-80
2023/04/17 10:54:05;;;;;;;11.40;10.40;;;;;;;16.46;48.72;101030.79;112725;1242;21980;-80
2023/04/17 10:57:02;;;;;;;11.70;10.60;;;;;;;16.15;48.79;101034.95;112467;1242;22164;-79
2023/04/17 11:00:39;;;;;;;;;;;;;;;;;;;;;
2023/04/17 11:07:09;;;;;;;13.20;11.90;;;;;;;15.35;50.57;101014.09;110968;1260;23083;-79
2023/04/17 11:10:05;;;;;;;12.30;11.20;;;;;;;15.21;51.19;101018.04;110896;1260;22007;-78
2023/04/17 11:12:52;;;;;;;13.00;11.60;;;;;;;15.25;51.97;101018.79;111033;1257;21995;-80
2023/04/17 11:15:37;;;;;;;13.50;12.30;;;;;;;15.23;52.00;101018.16;110948;1257;21983;-79
2023/04/17 11:18:14;;;;;;;13.30;12.10;;;;;;;15.16;51.91;101016.55;111031;1258;21986;-80
2023/04/17 11:21:12;;;;;;;13.70;12.40;;;;;;;15.14;52.36;101014.33;111265;1254;21988;-81
2023/04/17 11:25:01;;;;;;;19.40;14.40;;;;;;;15.12;52.68;101008.33;111711;1254;21994;-82
2023/04/17 11:28:35;;;;;;;14.20;13.00;;;;;;;15.09;53.15;101017.38;111649;1251;21994;-79
2023/04/17 11:31:20;;;;;;;13.60;12.50;;;;;;;15.13;53.43;101017.02;111163;1257;21989;-80
2023/04/17 11:38:37;;;;;;;17.30;15.70;;;;;;;15.16;53.41;101017.59;109534;1274;21988;-79
2023/04/17 11:41:50;;;;;;;;;;;;;;;;;;;;;
2023/04/17 11:44:20;;;;;;;13.90;12.70;;;;;;;15.18;53.72;101023.98;110269;1260;23706;-80
2023/04/17 11:46:57;;;;;;;13.20;12.10;;;;;;;15.13;53.42;101028.77;110747;1260;22010;-80
2023/04/17 11:49:51;;;;;;;14.30;13.10;;;;;;;15.09;53.60;101022.46;111511;1254;21962;-82
2023/04/17 11:52:27;;;;;;;14.90;13.50;;;;;;;15.16;53.99;101024.06;111123;1261;22029;-81
2023/04/17 11:55:10;;;;;;;13.60;12.50;;;;;;;15.30;54.03;101024.31;110748;1260;477871;-82
2023/04/17 11:57:47;;;;;;;24.60;16.00;;;;;;;15.39;53.41;101024.95;111170;1260;21998;-82
2023/04/17 12:00:39;;;;;;;13.60;12.20;;;;;;;15.42;53.59;101023.38;111137;1260;21998;-83
2023/04/17 12:03:52;;;;;;;14.40;13.00;;;;;;;15.44;53.13;101018.55;111148;1260;23835;-85
2023/04/17 12:06:49;;;;;;;14.10;12.70;;;;;;;15.44;53.33;101017.33;111276;1258;22000;-84
2023/04/17 12:09:44;;;;;;;12.90;11.70;;;;;;;15.43;53.30;101012.63;111287;1256;24309;-85
2023/04/17 12:12:22;;;;;;;13.60;11.60;;;;;;;15.41;52.96;101015.53;111074;1251;21988;-82
2023/04/17 12:15:03;;;;;;;13.00;11.80;;;;;;;15.37;53.14;101015.23;111846;1245;21943;-82
2023/04/17 12:21:01;;;;;;;13.70;12.30;;;;;;;15.28;53.44;101022.67;111981;1241;21962;-81
2023/04/17 12:23:39;;;;;;;12.90;11.70;;;;;;;15.29;53.47;101018.42;112045;1249;22004;-82
2023/04/17 12:26:32;;;;;;;;;;;;;;;;;;;;;
2023/04/17 12:29:19;;;;;;;17.20;13.10;;;;;;;15.25;53.33;101022.63;111360;1257;21990;-81
2023/04/17 12:32:44;;;;;;;11.60;10.60;;;;;;;15.25;53.53;101018.94;111633;1251;22860;-81
2023/04/17 12:35:18;;;;;;;15.50;13.90;;;;;;;15.28;53.57;101020.91;111768;1251;22250;-81
2023/04/17 12:37:51;;;;;;;11.80;10.60;;;;;;;15.28;53.41;101021.80;111926;1246;21978;-80
2023/04/17 12:40:22;;;;;;;16.70;12.40;;;;;;;15.22;53.26;101018.53;112486;1244;21973;-81
2023/04/17 12:42:53;;;;;;;12.60;11.40;;;;;;;15.14;53.20;101018.39;112399;1245;22663;-80
2023/04/17 12:45:22;;;;;;;12.20;11.10;;;;;;;15.05;53.38;101020.02;112731;1240;22307;-79
2023/04/17 12:47:56;;;;;;;12.70;11.50;;;;;;;14.98;53.61;101022.98;113366;1235;21976;-80
2023/04/17 12:50:30;;;;;;;11.90;10.90;;;;;;;14.89;53.93;101018.81;114112;1232;21977;-82
2023/04/17 12:53:00;;;;;;;12.20;11.20;;;;;;;14.89;54.27;101021.09;113968;1232;23603;-81
2023/04/17 12:55:29;;;;;;;12.10;11.00;;;;;;;14.90;54.24;101021.93;113731;1232;23688;-79
2023/04/17 12:58:01;;;;;;;12.20;11.00;;;;;;;14.89;54.59;101021.44;113856;1226;23774;-80
2023/04/17 13:00:30;;;;;;;12.70;11.70;;;;;;;14.92;54.56;101022.90;113645;1231;23565;-80
2023/04/17 13:03:00;;;;;;;15.00;13.60;;;;;;;14.89;54.61;101020.91;113717;1231;21945;-81
2023/04/17 13:05:30;;;;;;;14.30;13.10;;;;;;;14.84;54.75;101022.04;113903;1231;21949;-82
2023/04/17 13:08:00;;;;;;;13.70;12.40;;;;;;;14.80;54.79;101024.31;113673;1235;21976;-81
2023/04/17 13:10:30;;;;;;;14.20;12.60;;;;;;;14.67;54.77;101026.82;113629;1235;21975;-81
2023/04/17 13:13:01;;;;;;;13.40;12.00;;;;;;;14.53;55.08;101035.83;113658;1235;21995;-80
2023/04/17 13:15:30;;;;;;;13.70;12.40;;;;;;;14.44;55.46;101039.17;113884;1235;21941;-81
2023/04/17 13:18:01;;;;;;;14.10;12.60;;;;;;;14.40;55.81;101036.69;113619;1235;23568;-80
2023/04/17 13:20:34;;;;;;;13.40;12.10;;;;;;;14.37;56.04;101038.05;113526;1235;21941;-80
2023/04/17 13:23:20;;;;;;;12.20;11.00;;;;;;;14.37;56.35;101034.02;112840;1241;22748;-79
2023/04/17 13:26:02;;;;;;;13.00;11.80;;;;;;;14.35;56.40;101032.34;113596;1238;21971;-79
2023/04/17 13:28:39;;;;;;;13.80;12.40;;;;;;;14.33;56.65;101037.52;113507;1238;22025;-80
2023/04/17 13:31:14;;;;;;;14.50;12.80;;;;;;;14.28;56.66;101038.09;113278;1239;23182;-80
2023/04/17 13:33:58;;;;;;;13.60;12.40;;;;;;;14.23;56.87;101033.91;113344;1238;21949;-80
2023/04/17 13:36:32;;;;;;;19.60;13.00;;;;;;;14.20;57.01;101033.52;112683;1243;21956;-80
2023/04/17 13:39:02;;;;;;;14.60;13.30;;;;;;;14.17;57.08;101038.52;112774;1242;23140;-80
2023/04/17 13:41:39;;;;;;;13.20;11.90;;;;;;;14.19;57.24;101039.36;113082;1240;21984;-80
2023/04/17 13:44:27;;;;;;;13.70;12.40;;;;;;;14.20;57.31;101039.31;112602;1244;21935;-80
2023/04/17 13:47:02;;;;;;;13.90;12.70;;;;;;;14.17;57.33;101034.33;112467;1244;23602;-79
2023/04/17 13:49:37;;;;;;;13.40;12.20;;;;;;;14.16;57.61;101036.33;112820;1244;23053;-80
2023/04/17 13:52:23;;;;;;;17.40;12.60;;;;;;;14.17;57.64;101036.83;112920;1244;21969;-78
2023/04/17 13:55:02;;;;;;;12.10;11.10;;;;;;;14.17;57.61;101037.86;112516;1244;21951;-78
2023/04/17 13:57:36;;;;;;;14.00;11.80;;;;;;;14.13;57.50;101041.19;112907;1243;23022;-80
2023/04/17 14:00:10;;;;;;;14.60;13.20;;;;;;;14.09;57.71;101035.75;113213;1241;22389;-80
2023/04/17 14:02:49;;;;;;;16.10;14.50;;;;;;;14.06;57.83;101034.46;112862;1237;21945;-80
2023/04/17 14:05:19;;;;;;;17.20;14.60;;;;;;;14.08;58.12;101035.98;113073;1237;22957;-79
2023/04/17 14:07:54;;;;;;;15.90;14.10;;;;;;;14.11;58.21;101037.75;113381;1237;21982;-80
2023/04/17 14:10:23;;;;;;;16.00;12.90;;;;;;;14.12;58.12;101032.80;113824;1237;21951;-79
2023/04/17 14:12:53;;;;;;;16.00;14.40;;;;;;;14.15;58.19;101027.11;113445;1237;21954;-78
2023/04/17 14:15:25;;;;;;;17.70;16.00;;;;;;;14.16;58.23;101027.76;113654;1237;21932;-79
2023/04/17 14:17:58;;;;;;;17.50;15.90;;;;;;;14.16;58.14;101027.56;113998;1237;24281;-81
2023/04/17 14:20:27;;;;;;;14.80;13.40;;;;;;;14.16;58.16;101023.03;113872;1231;23597;-77
2023/04/17 14:22:58;;;;;;;15.60;14.20;;;;;;;14.19;58.24;101021.48;114014;1231;23562;-81